createdAt,value
2018-08-18T00:00:47.857Z,96.5
2018-08-18T00:01:56.395Z,96.3
2018-08-18T00:02:56.551Z,96.2
2018-08-18T00:04:00.372Z,95.9
2018-08-18T00:05:03.105Z,95.8
2018-08-18T00:06:23.870Z,95.5
2018-08-18T00:07:23.800Z,95.1
2018-08-18T00:08:27.945Z,94.9
2018-08-18T00:09:29.899Z,95.2
2018-08-18T00:10:38.733Z,94.9
2018-08-18T00:12:34.270Z,94.6
2018-08-18T00:13:34.261Z,94.4
2018-08-18T00:14:34.487Z,94.1
2018-08-18T00:15:37.342Z,94.1
2018-08-18T00:16:40.743Z,94.1
2018-08-18T00:17:40.709Z,94.2
2018-08-18T00:18:41.906Z,94.3
2018-08-18T00:19:43.076Z,94.3
2018-08-18T00:20:43.013Z,94.4
2018-08-18T00:21:45.778Z,94.3
2018-08-18T00:22:51.450Z,93.8
2018-08-18T00:23:54.408Z,94.2
2018-08-18T00:24:55.331Z,94.2
2018-08-18T00:25:55.345Z,93.9
2018-08-18T00:26:58.059Z,94
2018-08-18T00:28:07.849Z,94
2018-08-18T00:29:07.803Z,94
2018-08-18T00:30:07.849Z,94.2
2018-08-18T00:31:10.597Z,94.1
2018-08-18T00:32:10.738Z,94.3
2018-08-18T00:33:15.833Z,94.1
2018-08-18T00:34:16.392Z,93.9
2018-08-18T00:35:17.732Z,93.9
2018-08-18T00:36:17.957Z,94
2018-08-18T00:37:38.905Z,94
2018-08-18T00:38:39.068Z,94.1
2018-08-18T00:39:39.212Z,94.1
2018-08-18T00:40:42.896Z,94.1
2018-08-18T00:41:43.112Z,94.1
2018-08-18T00:42:43.097Z,94.2
2018-08-18T00:43:47.581Z,94.3
2018-08-18T00:44:48.710Z,94.3
2018-08-18T00:45:49.665Z,94.4
2018-08-18T00:46:49.612Z,94.4
2018-08-18T00:47:53.339Z,94.4
2018-08-18T00:48:54.497Z,94.6
2018-08-18T00:50:03.283Z,94.6
2018-08-18T00:51:04.194Z,94.6
2018-08-18T00:52:08.948Z,94.6
2018-08-18T00:53:10.132Z,95.1
2018-08-18T00:54:14.743Z,94.8
2018-08-18T00:55:18.702Z,94.8
2018-08-18T00:56:40.632Z,94.8
2018-08-18T00:57:40.801Z,95.1
2018-08-18T00:58:44.740Z,94.7
2018-08-18T00:59:45.660Z,94.4
2018-08-18T01:00:49.017Z,94.1
2018-08-18T01:01:49.188Z,94.2
2018-08-18T01:02:55.927Z,94.2
2018-08-18T01:03:56.910Z,94.2
2018-08-18T01:04:58.526Z,94.3
2018-08-18T01:06:02.456Z,94.3
2018-08-18T01:07:02.352Z,94
2018-08-18T01:08:12.164Z,94.1
2018-08-18T01:09:34.265Z,94.1
2018-08-18T01:10:34.433Z,93.8
2018-08-18T01:11:35.180Z,93.8
2018-08-18T01:12:41.020Z,93.8
2018-08-18T01:13:42.641Z,93.8
2018-08-18T01:14:43.165Z,94
2018-08-18T01:15:54.976Z,94.5
2018-08-18T01:17:16.098Z,94.3
2018-08-18T01:18:16.025Z,94.2
2018-08-18T01:19:16.978Z,94.2
2018-08-18T01:20:20.308Z,94.1
2018-08-18T01:21:41.191Z,94.1
2018-08-18T01:22:41.348Z,93.9
2018-08-18T01:23:51.930Z,93.8
2018-08-18T01:24:51.865Z,93.8
2018-08-18T01:25:54.600Z,94
2018-08-18T01:27:00.926Z,94
2018-08-18T01:28:04.030Z,93.9
2018-08-18T01:29:03.965Z,93.9
2018-08-18T01:30:07.676Z,94
2018-08-18T01:31:07.842Z,94
2018-08-18T01:32:10.970Z,94
2018-08-18T01:33:14.794Z,94
2018-08-18T01:34:14.718Z,94.1
2018-08-18T01:35:18.364Z,94
2018-08-18T01:36:30.382Z,94
2018-08-18T01:37:31.785Z,94
2018-08-18T01:38:32.150Z,94.1
2018-08-18T01:39:36.057Z,94.3
2018-08-18T01:40:39.422Z,94.2
2018-08-18T01:41:40.374Z,94.3
2018-08-18T01:42:41.336Z,94.2
2018-08-18T01:43:44.498Z,94.3
2018-08-18T01:44:45.594Z,94.3
2018-08-18T01:45:49.406Z,94.3
2018-08-18T01:46:53.376Z,94.4
2018-08-18T01:47:54.043Z,94.4
2018-08-18T01:48:54.225Z,94.6
2018-08-18T01:49:56.150Z,94.6
2018-08-18T01:50:56.097Z,94.7
2018-08-18T01:51:58.755Z,94.7
2018-08-18T01:53:00.581Z,94.7
2018-08-18T01:54:00.509Z,94.8
2018-08-18T01:55:10.178Z,95.1
2018-08-18T01:56:18.876Z,95
2018-08-18T01:57:19.028Z,95
2018-08-18T01:58:25.668Z,95
2018-08-18T01:59:34.768Z,95
2018-08-18T02:00:34.970Z,95.2
2018-08-18T02:01:36.133Z,95
2018-08-18T02:02:36.058Z,95
2018-08-18T02:03:35.976Z,94.9
2018-08-18T02:04:36.976Z,94.9
2018-08-18T02:05:37.159Z,95
2018-08-18T02:06:37.781Z,95
2018-08-18T02:07:37.935Z,95.1
2018-08-18T02:08:38.411Z,95.1
2018-08-18T02:09:39.286Z,95.3
2018-08-18T02:10:42.094Z,95.3
2018-08-18T02:11:42.038Z,95.3
2018-08-18T02:12:43.202Z,95.4
2018-08-18T02:13:43.805Z,95.3
2018-08-18T02:14:43.979Z,95.5
2018-08-18T02:15:43.911Z,95.5
2018-08-18T02:16:44.131Z,95.5
2018-08-18T02:17:45.139Z,95.5
2018-08-18T02:18:46.493Z,95.5
2018-08-18T02:19:46.424Z,95.4
2018-08-18T02:20:48.928Z,95.4
2018-08-18T02:21:49.895Z,95.5
2018-08-18T02:22:51.073Z,95.6
2018-08-18T02:23:51.006Z,95.5
2018-08-18T02:24:54.140Z,95.7
2018-08-18T02:25:54.277Z,96.3
2018-08-18T02:26:56.152Z,96
2018-08-18T02:27:56.105Z,96
2018-08-18T02:28:56.497Z,96.2
2018-08-18T02:29:56.661Z,96.3
2018-08-18T02:30:57.640Z,96.3
2018-08-18T02:31:58.261Z,96.2
2018-08-18T02:32:58.401Z,96.5
2018-08-18T02:33:58.363Z,96.4
2018-08-18T02:34:58.281Z,96.5
2018-08-18T02:35:58.419Z,96.4
2018-08-18T02:37:04.412Z,96.6
2018-08-18T02:38:04.802Z,96.6
2018-08-18T02:39:08.630Z,96.4
2018-08-18T02:40:12.993Z,96.2
2018-08-18T02:41:13.458Z,96.4
2018-08-18T02:42:13.932Z,96.3
2018-08-18T02:43:13.869Z,96.3
2018-08-18T02:44:14.239Z,96.5
2018-08-18T02:45:14.177Z,96.5
2018-08-18T02:46:14.382Z,96.6
2018-08-18T02:47:14.344Z,96.4
2018-08-18T02:48:14.272Z,96.4
2018-08-18T02:49:14.949Z,96.3
2018-08-18T02:50:15.090Z,96.3
2018-08-18T02:51:15.081Z,96.2
2018-08-18T02:52:15.209Z,96.1
2018-08-18T02:53:18.369Z,96.2
2018-08-18T02:54:19.328Z,96
2018-08-18T02:55:20.940Z,95.9
2018-08-18T02:56:23.947Z,95.9
2018-08-18T02:57:25.106Z,95.8
2018-08-18T02:58:25.065Z,95.8
2018-08-18T02:59:26.863Z,95.9
2018-08-18T03:00:30.826Z,96
2018-08-18T03:01:30.766Z,96
2018-08-18T03:02:31.155Z,96
2018-08-18T03:03:31.609Z,95.9
2018-08-18T03:04:31.755Z,95.8
2018-08-18T03:05:31.690Z,95.9
2018-08-18T03:06:31.899Z,96
2018-08-18T03:07:31.826Z,96.1
2018-08-18T03:08:32.812Z,96.4
2018-08-18T03:09:33.680Z,96.5
2018-08-18T03:10:33.803Z,96.4
2018-08-18T03:11:37.818Z,96.3
2018-08-18T03:12:37.760Z,96.2
2018-08-18T03:13:37.896Z,96.1
2018-08-18T03:14:42.035Z,96.1
2018-08-18T03:15:41.945Z,95.9
2018-08-18T03:16:42.137Z,96
2018-08-18T03:17:42.136Z,96
2018-08-18T03:18:43.283Z,96.3
2018-08-18T03:19:57.592Z,96.4
2018-08-18T03:20:57.726Z,96.4
2018-08-18T03:21:58.852Z,96.4
2018-08-18T03:22:58.831Z,96.6
2018-08-18T03:23:59.789Z,96.7
2018-08-18T03:24:59.959Z,96.6
2018-08-18T03:25:59.928Z,96.6
2018-08-18T03:26:59.877Z,96.5
2018-08-18T03:28:00.061Z,96.2
2018-08-18T03:29:03.360Z,96.3
2018-08-18T03:30:05.248Z,96.2
2018-08-18T03:31:08.555Z,96.3
2018-08-18T03:32:11.292Z,96.6
2018-08-18T03:33:12.332Z,96.7
2018-08-18T03:34:12.327Z,96.7
2018-08-18T03:35:12.292Z,96.7
2018-08-18T03:36:12.453Z,96.8
2018-08-18T03:37:21.076Z,96.9
2018-08-18T03:38:22.482Z,97
2018-08-18T03:39:22.653Z,97
2018-08-18T03:40:23.058Z,97.4
2018-08-18T03:41:23.218Z,97.1
2018-08-18T03:42:23.142Z,97.1
2018-08-18T03:43:23.155Z,97.1
2018-08-18T03:44:23.293Z,97.1
2018-08-18T03:45:23.692Z,97.1
2018-08-18T03:46:24.646Z,97.1
2018-08-18T03:47:33.724Z,97.2
2018-08-18T03:48:36.679Z,97.3
2018-08-18T03:49:36.680Z,97.3
2018-08-18T03:51:03.541Z,97.4
2018-08-18T03:52:04.456Z,97.5
2018-08-18T03:53:05.405Z,97.9
2018-08-18T03:54:26.113Z,97.6
2018-08-18T03:55:33.108Z,97.5
2018-08-18T03:56:37.053Z,97.9
2018-08-18T03:57:43.773Z,97.9
2018-08-18T03:58:47.714Z,97.8
2018-08-18T03:59:51.302Z,97.8
2018-08-18T04:00:55.453Z,98
2018-08-18T04:02:16.023Z,97.9
2018-08-18T04:03:24.942Z,98.2
2018-08-18T04:05:10.113Z,98.1
2018-08-18T04:06:10.279Z,98.4
2018-08-18T04:07:10.711Z,98.2
2018-08-18T04:08:10.703Z,98.1
2018-08-18T04:09:12.095Z,97.8
2018-08-18T04:10:14.233Z,98
2018-08-18T04:11:18.348Z,97.7
2018-08-18T04:12:18.515Z,97.8
2018-08-18T04:13:20.019Z,97.8
2018-08-18T04:14:20.153Z,97.7
2018-08-18T04:15:20.328Z,97.9
2018-08-18T04:16:29.833Z,97.9
2018-08-18T04:17:29.787Z,98.1
2018-08-18T04:18:31.006Z,98.1
2018-08-18T04:19:39.925Z,98.3
2018-08-18T04:20:43.044Z,98
2018-08-18T04:21:42.969Z,98.2
2018-08-18T04:22:46.196Z,98.4
2018-08-18T04:23:55.642Z,98.3
2018-08-18T04:24:55.786Z,98.5
2018-08-18T04:25:55.963Z,98.3
2018-08-18T04:26:56.346Z,98.4
2018-08-18T04:27:56.288Z,98.4
2018-08-18T04:28:56.462Z,98.5
2018-08-18T04:29:56.632Z,98.5
2018-08-18T04:30:56.831Z,98.2
2018-08-18T04:31:57.247Z,97.9
2018-08-18T04:32:57.406Z,98
2018-08-18T04:34:00.918Z,98
2018-08-18T04:35:01.105Z,98.4
2018-08-18T04:36:01.256Z,98.2
2018-08-18T04:37:01.179Z,98.5
2018-08-18T04:38:01.359Z,98.4
2018-08-18T04:39:01.757Z,98.5
2018-08-18T04:40:01.721Z,98.4
2018-08-18T04:41:01.877Z,98.5
2018-08-18T04:42:03.254Z,98.8
2018-08-18T04:43:03.215Z,98.9
2018-08-18T04:44:04.288Z,98.8
2018-08-18T04:45:04.633Z,98.6
2018-08-18T04:46:04.580Z,98.6
2018-08-18T04:47:08.048Z,99.1
2018-08-18T04:48:08.240Z,99.1
2018-08-18T04:49:08.193Z,98.9
2018-08-18T04:50:08.130Z,99.1
2018-08-18T04:51:08.280Z,98.8
2018-08-18T04:52:08.656Z,98.7
2018-08-18T04:53:12.846Z,98.6
2018-08-18T04:54:13.724Z,98.6
2018-08-18T04:55:13.724Z,98.6
2018-08-18T04:56:13.920Z,98.6
2018-08-18T04:57:15.094Z,98.7
2018-08-18T04:58:15.025Z,98.6
2018-08-18T04:59:15.153Z,98.9
2018-08-18T05:00:15.206Z,99
2018-08-18T05:01:37.072Z,99.1
2018-08-18T05:02:41.430Z,99
2018-08-18T05:03:42.346Z,99
2018-08-18T05:04:45.486Z,99.1
2018-08-18T05:05:46.647Z,99
2018-08-18T05:06:46.596Z,99
2018-08-18T05:07:46.524Z,99.2
2018-08-18T05:08:49.856Z,99.3
2018-08-18T05:09:53.436Z,99.4
2018-08-18T05:11:38.865Z,99.3
2018-08-18T05:12:39.412Z,99.5
2018-08-18T05:13:39.322Z,99.6
2018-08-18T05:14:44.840Z,99.6
2018-08-18T05:16:30.350Z,99.5
2018-08-18T05:17:39.086Z,99.6
2018-08-18T05:19:02.200Z,99.8
2018-08-18T05:20:02.601Z,99.9
2018-08-18T05:21:04.005Z,99.7
2018-08-18T05:22:07.777Z,99.8
2018-08-18T05:23:07.947Z,99.9
2018-08-18T05:24:08.135Z,99.9
2018-08-18T05:25:15.681Z,99.8
2018-08-18T05:26:16.624Z,99.9
2018-08-18T05:27:17.290Z,99.8
2018-08-18T05:28:17.444Z,99.8
2018-08-18T05:29:24.722Z,99.6
2018-08-18T05:30:46.702Z,99.8
2018-08-18T05:31:46.884Z,99.3
2018-08-18T05:32:46.821Z,99.1
2018-08-18T05:33:47.298Z,99.1
2018-08-18T05:34:47.221Z,99.2
2018-08-18T05:35:47.592Z,99.1
2018-08-18T05:36:48.659Z,98.8
2018-08-18T05:37:49.844Z,98.5
2018-08-18T05:38:50.007Z,98.3
2018-08-18T05:39:50.020Z,98.3
2018-08-18T05:41:35.428Z,98.2
2018-08-18T05:42:35.574Z,98.3
2018-08-18T05:43:35.524Z,98.4
2018-08-18T05:44:35.483Z,98.1
2018-08-18T05:45:57.460Z,97.9
2018-08-18T05:46:57.611Z,97.6
2018-08-18T05:48:04.511Z,97.4
2018-08-18T05:49:11.411Z,97.2
2018-08-18T05:50:11.581Z,97.4
2018-08-18T05:51:11.854Z,97.1
2018-08-18T05:52:11.869Z,96.7
2018-08-18T05:53:11.804Z,96.6
2018-08-18T05:54:11.987Z,96.6
2018-08-18T05:55:12.153Z,96.5
2018-08-18T05:56:12.570Z,96.4
2018-08-18T05:57:21.989Z,95.9
2018-08-18T05:58:26.065Z,96.1
2018-08-18T05:59:38.393Z,96
2018-08-18T06:00:42.835Z,95.6
2018-08-18T06:01:43.037Z,95.7
2018-08-18T06:02:46.618Z,95.7
2018-08-18T06:03:49.583Z,95.5
2018-08-18T06:04:52.799Z,95.2
2018-08-18T06:06:02.407Z,95.2
2018-08-18T06:07:06.118Z,95.5
2018-08-18T06:08:27.039Z,95.4
2018-08-18T06:09:30.988Z,94.7
2018-08-18T06:10:56.462Z,94.5
2018-08-18T06:12:08.245Z,94.9
2018-08-18T06:13:12.568Z,94.6
2018-08-18T06:14:15.606Z,94.4
2018-08-18T06:15:15.555Z,94.7
2018-08-18T06:16:25.501Z,94.2
2018-08-18T06:17:47.770Z,94.2
2018-08-18T06:18:47.680Z,94
2018-08-18T06:19:48.841Z,93.8
2018-08-18T06:20:52.335Z,93.6
2018-08-18T06:22:38.303Z,93.7
2018-08-18T06:23:45.988Z,92.9
2018-08-18T06:24:46.904Z,92.8
2018-08-18T06:26:32.226Z,92.9
2018-08-18T06:27:33.728Z,92.6
2018-08-18T06:28:37.875Z,92.7
2018-08-18T06:29:50.854Z,92.7
2018-08-18T06:30:51.026Z,92.7
2018-08-18T06:31:51.209Z,92.5
2018-08-18T06:32:51.154Z,92.3
2018-08-18T06:33:55.605Z,92.3
2018-08-18T06:34:59.144Z,92.7
2018-08-18T06:35:59.522Z,92.3
2018-08-18T06:37:07.000Z,91.9
2018-08-18T06:38:07.135Z,92.1
2018-08-18T06:39:07.079Z,91.8
2018-08-18T06:40:11.068Z,91.1
2018-08-18T06:41:17.565Z,91.1
2018-08-18T06:42:17.829Z,90.9
2018-08-18T06:43:18.777Z,90.7
2018-08-18T06:44:19.452Z,90.7
2018-08-18T06:45:22.382Z,90.9
2018-08-18T06:46:22.522Z,90.6
2018-08-18T06:47:24.458Z,90.2
2018-08-18T06:48:25.420Z,89.2
2018-08-18T06:49:25.572Z,88.9
2018-08-18T06:50:26.557Z,88.4
2018-08-18T06:51:28.498Z,90.1
2018-08-18T06:52:28.632Z,90
2018-08-18T06:53:28.784Z,90.3
2018-08-18T06:54:29.823Z,90
2018-08-18T06:55:31.167Z,90.1
2018-08-18T06:56:40.325Z,90.1
2018-08-18T06:57:40.282Z,90
2018-08-18T06:58:40.242Z,90.1
2018-08-18T06:59:40.601Z,90.2
2018-08-18T07:00:41.736Z,90.3
2018-08-18T07:01:41.648Z,90.2
2018-08-18T07:02:41.819Z,90.6
2018-08-18T07:03:42.914Z,90.9
2018-08-18T07:04:46.213Z,90.8
2018-08-18T07:05:46.449Z,90.7
2018-08-18T07:06:55.558Z,90.8
2018-08-18T07:07:58.747Z,90.9
2018-08-18T07:08:59.897Z,91.1
2018-08-18T07:09:59.819Z,91.2
2018-08-18T07:11:00.731Z,91.4
2018-08-18T07:12:00.630Z,91.8
2018-08-18T07:13:00.545Z,92.2
2018-08-18T07:14:00.483Z,91.3
2018-08-18T07:15:00.820Z,90.3
2018-08-18T07:16:00.717Z,90.9
2018-08-18T07:17:00.856Z,90.5
2018-08-18T07:18:00.780Z,90.5
2018-08-18T07:19:00.706Z,90.3
2018-08-18T07:20:00.873Z,90.4
2018-08-18T07:21:00.785Z,90
2018-08-18T07:22:00.711Z,89.8
2018-08-18T07:23:00.629Z,89.2
2018-08-18T07:24:01.552Z,89.9
2018-08-18T07:25:01.929Z,90.1
2018-08-18T07:26:02.857Z,90.6
2018-08-18T07:27:02.793Z,90.1
2018-08-18T07:28:02.710Z,89.9
2018-08-18T07:29:03.721Z,89.5
2018-08-18T07:30:05.510Z,89.9
2018-08-18T07:31:05.443Z,89.9
2018-08-18T07:32:05.372Z,90
2018-08-18T07:33:05.308Z,90.2
2018-08-18T07:34:05.224Z,90.2
2018-08-18T07:35:05.633Z,90
2018-08-18T07:36:05.593Z,90.3
2018-08-18T07:37:05.696Z,90.1
2018-08-18T07:38:05.797Z,89.5
2018-08-18T07:39:06.008Z,89.5
2018-08-18T07:40:06.325Z,89.5
2018-08-18T07:41:06.242Z,90.1
2018-08-18T07:42:06.161Z,88.8
2018-08-18T07:43:06.077Z,87.5
2018-08-18T07:44:06.662Z,87.5
2018-08-18T07:45:07.019Z,87.7
2018-08-18T07:46:06.957Z,88.5
2018-08-18T07:47:07.077Z,89.1
2018-08-18T07:48:07.588Z,89.2
2018-08-18T07:49:07.874Z,90
2018-08-18T07:50:07.789Z,90.2
2018-08-18T07:51:07.737Z,89.8
2018-08-18T07:52:07.655Z,90
2018-08-18T07:53:08.026Z,89.9
2018-08-18T07:54:08.110Z,90.2
2018-08-18T07:55:11.617Z,90.4
2018-08-18T07:56:11.546Z,91.2
2018-08-18T07:57:11.472Z,91.1
2018-08-18T07:58:11.398Z,91
2018-08-18T07:59:11.306Z,91.4
2018-08-18T08:00:11.765Z,91.5
2018-08-18T08:01:11.908Z,91.5
2018-08-18T08:02:11.879Z,91
2018-08-18T08:03:11.800Z,91.2
2018-08-18T08:04:11.726Z,90.7
2018-08-18T08:05:12.761Z,90.9
2018-08-18T08:06:13.113Z,91.1
2018-08-18T08:07:13.702Z,90.5
2018-08-18T08:08:13.651Z,90.2
2018-08-18T08:09:13.570Z,90.1
2018-08-18T08:10:13.486Z,89.5
2018-08-18T08:11:13.424Z,89.6
2018-08-18T08:12:13.348Z,88.9
2018-08-18T08:13:13.264Z,89.2
2018-08-18T08:14:13.200Z,89.2
2018-08-18T08:15:13.633Z,89.1
2018-08-18T08:16:13.575Z,89.5
2018-08-18T08:17:13.493Z,88.8
2018-08-18T08:18:13.756Z,87.7
2018-08-18T08:19:16.965Z,87.4
2018-08-18T08:20:16.877Z,88.1
2018-08-18T08:21:16.850Z,87.7
2018-08-18T08:22:19.757Z,86.8
2018-08-18T08:23:19.717Z,85.9
2018-08-18T08:24:19.680Z,87
2018-08-18T08:25:20.106Z,87.1
2018-08-18T08:26:21.324Z,85.6
2018-08-18T08:27:21.723Z,85.3
2018-08-18T08:28:21.628Z,86.9
2018-08-18T08:29:21.554Z,86.4
2018-08-18T08:30:24.498Z,87.1
2018-08-18T08:31:30.285Z,87.3
2018-08-18T08:32:30.180Z,85.8
2018-08-18T08:33:30.093Z,85.2
2018-08-18T08:34:30.026Z,85.9
2018-08-18T08:35:30.632Z,85
2018-08-18T08:36:30.559Z,85
2018-08-18T08:37:30.868Z,86.4
2018-08-18T08:38:31.822Z,86.2
2018-08-18T08:39:31.730Z,85.1
2018-08-18T08:40:34.543Z,85.4
2018-08-18T08:41:34.697Z,85.8
2018-08-18T08:42:34.624Z,88
2018-08-18T08:43:34.542Z,86.8
2018-08-18T08:44:34.479Z,87.5
2018-08-18T08:45:34.894Z,87.1
2018-08-18T08:46:34.815Z,86.8
2018-08-18T08:47:34.971Z,85.2
2018-08-18T08:48:34.914Z,85.2
2018-08-18T08:49:37.788Z,86.5
2018-08-18T08:50:43.895Z,85.8
2018-08-18T08:51:43.828Z,84.7
2018-08-18T08:52:44.999Z,85.3
2018-08-18T08:53:48.991Z,84.9
2018-08-18T08:54:51.738Z,85
2018-08-18T08:56:40.680Z,83.6
2018-08-18T08:57:41.538Z,84
2018-08-18T08:58:44.361Z,85.4
2018-08-18T08:59:45.062Z,85.5
2018-08-18T09:00:44.969Z,84
2018-08-18T09:01:44.893Z,83.2
2018-08-18T09:02:44.838Z,83.9
2018-08-18T09:03:44.964Z,84.8
2018-08-18T09:04:45.134Z,83.5
2018-08-18T09:05:45.257Z,84
2018-08-18T09:06:45.607Z,84.3
2018-08-18T09:07:48.437Z,83.6
2018-08-18T09:08:48.556Z,85.3
2018-08-18T09:09:48.465Z,84
2018-08-18T09:10:49.043Z,86.5
2018-08-18T09:11:52.950Z,85.7
2018-08-18T09:12:52.884Z,83.8
2018-08-18T09:13:53.025Z,84
2018-08-18T09:14:52.948Z,84.2
2018-08-18T09:15:52.860Z,85
2018-08-18T09:16:56.456Z,85.2
2018-08-18T09:17:59.211Z,85.2
2018-08-18T09:18:59.139Z,83.4
2018-08-18T09:19:59.056Z,82.8
2018-08-18T09:21:03.295Z,83.3
2018-08-18T09:22:03.881Z,84.6
2018-08-18T09:23:03.794Z,83.5
2018-08-18T09:24:04.384Z,84.4
2018-08-18T09:25:04.290Z,84.1
2018-08-18T09:26:04.656Z,83.8
2018-08-18T09:27:08.130Z,84.4
2018-08-18T09:28:12.049Z,82.7
2018-08-18T09:29:11.954Z,84.1
2018-08-18T09:30:13.434Z,82.3
2018-08-18T09:31:13.378Z,83.1
2018-08-18T09:32:13.325Z,83.7
2018-08-18T09:33:13.732Z,84.3
2018-08-18T09:34:13.646Z,84.1
2018-08-18T09:35:13.581Z,85.1
2018-08-18T09:36:13.697Z,87.1
2018-08-18T09:37:14.274Z,85.8
2018-08-18T09:38:15.443Z,84.3
2018-08-18T09:39:18.394Z,83.2
2018-08-18T09:40:18.339Z,83.2
2018-08-18T09:41:18.289Z,84.1
2018-08-18T09:42:18.231Z,84.3
2018-08-18T09:43:18.181Z,83.1
2018-08-18T09:44:21.142Z,83.5
2018-08-18T09:45:21.459Z,83.6
2018-08-18T09:46:22.020Z,84.4
2018-08-18T09:47:22.886Z,84
2018-08-18T09:48:23.063Z,85.2
2018-08-18T09:49:24.073Z,85.5
2018-08-18T09:50:27.142Z,86.6
2018-08-18T09:51:27.283Z,88
2018-08-18T09:52:27.680Z,86.5
2018-08-18T09:53:27.862Z,85.4
2018-08-18T09:54:28.011Z,86.2
2018-08-18T09:55:30.937Z,85
2018-08-18T09:56:31.050Z,83.2
2018-08-18T09:57:31.770Z,83.7
2018-08-18T09:58:32.937Z,84.2
2018-08-18T09:59:33.125Z,83.7
2018-08-18T10:00:33.143Z,84.7
2018-08-18T10:01:33.072Z,86
2018-08-18T10:02:33.245Z,85.7
2018-08-18T10:03:33.146Z,85.4
2018-08-18T10:04:33.098Z,84.5
2018-08-18T10:05:33.303Z,84.4
2018-08-18T10:06:33.834Z,85.1
2018-08-18T10:07:34.926Z,85.1
2018-08-18T10:08:36.024Z,84.7
2018-08-18T10:09:36.937Z,86
2018-08-18T10:10:36.881Z,85.1
2018-08-18T10:11:37.029Z,84.5
2018-08-18T10:12:37.011Z,83.8
2018-08-18T10:13:37.047Z,84.6
2018-08-18T10:14:36.998Z,84.9
2018-08-18T10:15:36.923Z,83.6
2018-08-18T10:16:36.833Z,84.6
2018-08-18T10:17:43.314Z,86.2
2018-08-18T10:18:43.285Z,86.4
2018-08-18T10:19:44.248Z,85.5
2018-08-18T10:20:44.925Z,86.7
2018-08-18T10:21:44.909Z,87.4
2018-08-18T10:22:44.857Z,86.5
2018-08-18T10:23:44.858Z,85.9
2018-08-18T10:24:44.815Z,84.5
2018-08-18T10:25:44.851Z,85
2018-08-18T10:26:45.867Z,85.5
2018-08-18T10:27:46.736Z,83.7
2018-08-18T10:28:46.920Z,83
2018-08-18T10:29:47.209Z,83.5
2018-08-18T10:30:49.909Z,84.2
2018-08-18T10:31:49.839Z,83.9
2018-08-18T10:32:49.821Z,83.7
2018-08-18T10:33:49.853Z,84
2018-08-18T10:34:49.902Z,85.5
2018-08-18T10:35:50.253Z,85.2
2018-08-18T10:36:50.179Z,85
2018-08-18T10:37:51.627Z,84.5
2018-08-18T10:38:51.550Z,84.3
2018-08-18T10:39:51.723Z,84.6
2018-08-18T10:40:52.010Z,84.9
2018-08-18T10:41:52.109Z,85.5
2018-08-18T10:42:52.278Z,85.8
2018-08-18T10:43:58.158Z,87.3
2018-08-18T10:44:58.092Z,86.5
2018-08-18T10:45:59.247Z,86.9
2018-08-18T10:46:59.370Z,88
2018-08-18T10:48:03.816Z,87.6
2018-08-18T10:49:03.735Z,87
2018-08-18T10:50:03.654Z,87.5
2018-08-18T10:51:03.556Z,88.3
2018-08-18T10:52:03.463Z,88.3
2018-08-18T10:53:04.373Z,88.6
2018-08-18T10:54:05.313Z,88.4
2018-08-18T10:55:06.262Z,87.5
2018-08-18T10:56:06.162Z,87.3
2018-08-18T10:57:07.068Z,87.8
2018-08-18T10:58:08.541Z,88.3
2018-08-18T10:59:11.602Z,88
2018-08-18T11:00:11.603Z,88.7
2018-08-18T11:01:11.594Z,88.8
2018-08-18T11:02:12.511Z,89.1
2018-08-18T11:03:12.445Z,89.5
2018-08-18T11:04:12.440Z,88.9
2018-08-18T11:05:12.605Z,89.3
2018-08-18T11:06:12.730Z,90.1
2018-08-18T11:07:16.649Z,90.1
2018-08-18T11:08:17.273Z,89.2
2018-08-18T11:09:17.519Z,89.4
2018-08-18T11:10:18.439Z,88.9
2018-08-18T11:11:22.447Z,88.3
2018-08-18T11:12:23.435Z,88.6
2018-08-18T11:13:23.378Z,89.4
2018-08-18T11:14:26.294Z,89.2
2018-08-18T11:15:27.209Z,89.5
2018-08-18T11:16:28.135Z,88.2
2018-08-18T11:17:28.051Z,88.3
2018-08-18T11:18:37.744Z,89
2018-08-18T11:19:37.682Z,89.3
2018-08-18T11:20:37.773Z,89.4
2018-08-18T11:21:38.760Z,88.9
2018-08-18T11:22:38.935Z,89.5
2018-08-18T11:23:39.092Z,88.7
2018-08-18T11:24:39.027Z,88.7
2018-08-18T11:25:39.266Z,87.6
2018-08-18T11:26:41.979Z,88.1
2018-08-18T11:27:41.900Z,88.1
2018-08-18T11:28:43.435Z,88
2018-08-18T11:29:43.928Z,88
2018-08-18T11:30:50.730Z,87.5
2018-08-18T11:31:50.812Z,88
2018-08-18T11:32:50.807Z,88.3
2018-08-18T11:33:50.765Z,87.9
2018-08-18T11:34:50.696Z,89.1
2018-08-18T11:35:50.629Z,89.9
2018-08-18T11:36:50.550Z,89.6
2018-08-18T11:37:50.697Z,88.4
2018-08-18T11:38:51.175Z,89
2018-08-18T11:39:51.243Z,89.2
2018-08-18T11:40:51.275Z,87.8
2018-08-18T11:41:51.177Z,87.4
2018-08-18T11:42:51.313Z,86.8
2018-08-18T11:43:51.242Z,87.2
2018-08-18T11:44:51.156Z,87.1
2018-08-18T11:45:51.284Z,86.2
2018-08-18T11:46:51.388Z,86.6
2018-08-18T11:47:51.357Z,86.8
2018-08-18T11:48:51.736Z,87.2
2018-08-18T11:49:51.654Z,87.8
2018-08-18T11:50:51.572Z,88.4
2018-08-18T11:51:51.485Z,88.6
2018-08-18T11:52:51.390Z,89.2
2018-08-18T11:53:53.950Z,88
2018-08-18T11:54:54.098Z,87.4
2018-08-18T11:55:54.067Z,86.8
2018-08-18T11:56:53.991Z,87.7
2018-08-18T11:57:53.928Z,87.8
2018-08-18T11:58:54.292Z,87.4
2018-08-18T11:59:54.878Z,87.1
2018-08-18T12:00:54.815Z,87.9
2018-08-18T12:01:58.781Z,88
2018-08-18T12:02:59.056Z,87.7
2018-08-18T12:03:59.186Z,87.6
2018-08-18T12:05:00.379Z,87.1
2018-08-18T12:06:00.280Z,87.7
2018-08-18T12:07:01.384Z,86.9
2018-08-18T12:08:01.291Z,87.7
2018-08-18T12:09:05.691Z,87.3
2018-08-18T12:10:05.852Z,87.1
2018-08-18T12:11:06.363Z,86.9
2018-08-18T12:12:12.932Z,85.8
2018-08-18T12:13:15.838Z,87.1
2018-08-18T12:14:15.812Z,86.7
2018-08-18T12:15:16.026Z,86.5
2018-08-18T12:16:16.200Z,86.2
2018-08-18T12:17:17.124Z,86.8
2018-08-18T12:18:17.067Z,86.3
2018-08-18T12:19:17.453Z,84.9
2018-08-18T12:20:17.723Z,85.5
2018-08-18T12:21:17.886Z,85.2
2018-08-18T12:22:20.568Z,85.6
2018-08-18T12:23:20.537Z,84.2
2018-08-18T12:24:23.067Z,83.7
2018-08-18T12:25:23.281Z,84.4
2018-08-18T12:26:23.475Z,84
2018-08-18T12:27:23.824Z,83.3
2018-08-18T12:28:23.757Z,82.4
2018-08-18T12:29:25.561Z,83.2
2018-08-18T12:30:26.081Z,84.8
2018-08-18T12:31:27.005Z,83.3
2018-08-18T12:32:27.372Z,82.8
2018-08-18T12:33:27.278Z,83.5
2018-08-18T12:34:27.218Z,81.8
2018-08-18T12:35:27.580Z,82.7
2018-08-18T12:36:27.934Z,82.4
2018-08-18T12:37:31.016Z,82.6
2018-08-18T12:38:31.221Z,82.4
2018-08-18T12:39:32.086Z,82.4
2018-08-18T12:40:32.053Z,82.5
2018-08-18T12:41:32.203Z,82.5
2018-08-18T12:42:32.123Z,83.3
2018-08-18T12:43:32.636Z,83.3
2018-08-18T12:44:33.327Z,83.4
2018-08-18T12:45:33.233Z,83.7
2018-08-18T12:46:33.595Z,84.3
2018-08-18T12:47:33.989Z,83.4
2018-08-18T12:48:36.153Z,83.1
2018-08-18T12:49:36.846Z,83.3
2018-08-18T12:50:37.230Z,83.6
2018-08-18T12:51:39.799Z,83.1
2018-08-18T12:52:39.966Z,83.1
2018-08-18T12:53:39.880Z,83.1
2018-08-18T12:54:39.852Z,83.7
2018-08-18T12:55:39.781Z,84.5
2018-08-18T12:56:49.417Z,83.9
2018-08-18T12:57:49.557Z,84.3
2018-08-18T12:58:49.495Z,85.1
2018-08-18T12:59:49.919Z,87.2
2018-08-18T13:00:49.835Z,87.5
2018-08-18T13:01:51.746Z,87.6
2018-08-18T13:02:51.873Z,88.1
2018-08-18T13:03:52.817Z,88.5
2018-08-18T13:04:52.984Z,88.8
2018-08-18T13:05:52.892Z,87.8
2018-08-18T13:06:53.036Z,88
2018-08-18T13:07:52.961Z,87.7
2018-08-18T13:08:53.129Z,87.3
2018-08-18T13:09:53.725Z,87.2
2018-08-18T13:10:53.654Z,87.7
2018-08-18T13:11:54.625Z,87.3
2018-08-18T13:12:57.437Z,87.6
2018-08-18T13:14:00.324Z,87.9
2018-08-18T13:15:00.267Z,87.5
2018-08-18T13:16:01.480Z,86.8
2018-08-18T13:17:01.397Z,86
2018-08-18T13:18:01.301Z,85.9
2018-08-18T13:19:01.226Z,85.3
2018-08-18T13:20:02.106Z,85
2018-08-18T13:21:02.032Z,85.1
2018-08-18T13:22:03.187Z,85.4
2018-08-18T13:23:03.227Z,84.3
2018-08-18T13:24:03.332Z,84.8
2018-08-18T13:25:03.577Z,84.6
2018-08-18T13:26:03.481Z,84.5
2018-08-18T13:27:06.282Z,84.9
2018-08-18T13:28:10.992Z,84.9
2018-08-18T13:29:11.460Z,84.2
2018-08-18T13:30:21.281Z,84.2
2018-08-18T13:31:21.494Z,84.5
2018-08-18T13:32:21.587Z,84.4
2018-08-18T13:33:22.715Z,84.8
2018-08-18T13:34:23.617Z,85.1
2018-08-18T13:35:25.717Z,84.4
2018-08-18T13:36:35.045Z,84
2018-08-18T13:37:35.018Z,84.3
2018-08-18T13:38:35.860Z,83.5
2018-08-18T13:39:39.782Z,83.6
2018-08-18T13:40:40.811Z,83.9
2018-08-18T13:41:40.742Z,84.1
2018-08-18T13:42:40.714Z,84
2018-08-18T13:43:40.633Z,83.7
2018-08-18T13:44:40.637Z,82.6
2018-08-18T13:45:40.574Z,82.8
2018-08-18T13:46:41.194Z,82.2
2018-08-18T13:47:44.244Z,82.7
2018-08-18T13:48:44.316Z,81.7
2018-08-18T13:49:44.222Z,81.9
2018-08-18T13:50:44.600Z,82.1
2018-08-18T13:51:44.539Z,82.7
2018-08-18T13:52:44.901Z,82.4
2018-08-18T13:53:48.419Z,81.8
2018-08-18T13:54:48.498Z,82.2